sensor_id;sensor_type;location;lat;lon;timestamp;temperature;humidity
30473;DHT22;17263;48.160;11.452;2023-01-30T00:00:35;-2.20;99.90
30473;DHT22;17263;48.160;11.452;2023-01-30T00:03:01;-2.20;99.90
30473;DHT22;17263;48.160;11.452;2023-01-30T00:05:27;-2.20;99.90
30473;DHT22;17263;48.160;11.452;2023-01-30T00:07:53;-2.20;99.90
30473;DHT22;17263;48.160;11.452;2023-01-30T00:10:19;-2.20;99.90
30473;DHT22;17263;48.160;11.452;2023-01-30T00:12:45;-2.20;99.90
30473;DHT22;17263;48.160;11.452;2023-01-30T00:15:11;-2.20;99.90
30473;DHT22;17263;48.160;11.452;2023-01-30T00:17:37;-2.30;99.90
30473;DHT22;17263;48.160;11.452;2023-01-30T00:20:03;-2.30;99.90
30473;DHT22;17263;48.160;11.452;2023-01-30T00:22:30;-2.30;99.90
30473;DHT22;17263;48.160;11.452;2023-01-30T00:24:56;-2.30;99.90
30473;DHT22;17263;48.160;11.452;2023-01-30T00:27:22;-2.30;99.90
30473;DHT22;17263;48.160;11.452;2023-01-30T00:29:48;-2.30;99.90
30473;DHT22;17263;48.160;11.452;2023-01-30T00:32:14;-2.40;99.90
30473;DHT22;17263;48.160;11.452;2023-01-30T00:34:40;-2.40;99.90
30473;DHT22;17263;48.160;11.452;2023-01-30T00:37:06;-2.30;99.90
30473;DHT22;17263;48.160;11.452;2023-01-30T00:39:32;-2.40;99.90
30473;DHT22;17263;48.160;11.452;2023-01-30T00:41:58;-2.40;99.90
30473;DHT22;17263;48.160;11.452;2023-01-30T00:44:42;-2.40;99.90
30473;DHT22;17263;48.160;11.452;2023-01-30T00:47:27;-2.40;99.90
30473;DHT22;17263;48.160;11.452;2023-01-30T00:49:53;-2.30;99.90
30473;DHT22;17263;48.160;11.452;2023-01-30T00:52:19;-2.40;99.90
30473;DHT22;17263;48.160;11.452;2023-01-30T00:54:45;-2.40;99.90
30473;DHT22;17263;48.160;11.452;2023-01-30T00:57:11;-2.40;99.90
30473;DHT22;17263;48.160;11.452;2023-01-30T00:59:37;-2.40;99.90
30473;DHT22;17263;48.160;11.452;2023-01-30T01:02:03;-2.30;99.90
30473;DHT22;17263;48.160;11.452;2023-01-30T01:04:29;-2.40;99.90
30473;DHT22;17263;48.160;11.452;2023-01-30T01:06:55;-2.40;99.90
30473;DHT22;17263;48.160;11.452;2023-01-30T01:09:21;-2.40;99.90
30473;DHT22;17263;48.160;11.452;2023-01-30T01:11:47;-2.40;99.90
30473;DHT22;17263;48.160;11.452;2023-01-30T01:14:13;-2.40;99.90
30473;DHT22;17263;48.160;11.452;2023-01-30T01:16:39;-2.40;99.90
30473;DHT22;17263;48.160;11.452;2023-01-30T01:19:05;-2.40;99.90
30473;DHT22;17263;48.160;11.452;2023-01-30T01:21:31;-2.40;99.90
30473;DHT22;17263;48.160;11.452;2023-01-30T01:23:58;-2.40;99.90
30473;DHT22;17263;48.160;11.452;2023-01-30T01:26:25;-2.40;99.90
30473;DHT22;17263;48.160;11.452;2023-01-30T01:28:55;-2.40;99.90
30473;DHT22;17263;48.160;11.452;2023-01-30T01:31:21;-2.40;99.90
30473;DHT22;17263;48.160;11.452;2023-01-30T01:33:49;-2.40;99.90
30473;DHT22;17263;48.160;11.452;2023-01-30T01:36:15;-2.40;99.90
30473;DHT22;17263;48.160;11.452;2023-01-30T01:38:42;-2.40;99.90
30473;DHT22;17263;48.160;11.452;2023-01-30T01:41:10;-2.40;99.90
30473;DHT22;17263;48.160;11.452;2023-01-30T01:43:57;-2.40;99.90
30473;DHT22;17263;48.160;11.452;2023-01-30T01:46:30;-2.40;99.90
30473;DHT22;17263;48.160;11.452;2023-01-30T01:48:59;-2.40;99.90
30473;DHT22;17263;48.160;11.452;2023-01-30T01:51:36;-2.50;99.90
30473;DHT22;17263;48.160;11.452;2023-01-30T01:54:07;-2.50;99.90
30473;DHT22;17263;48.160;11.452;2023-01-30T01:56:35;-2.50;99.90
30473;DHT22;17263;48.160;11.452;2023-01-30T01:59:24;-2.50;99.90
30473;DHT22;17263;48.160;11.452;2023-01-30T02:01:56;-2.50;99.90
30473;DHT22;17263;48.160;11.452;2023-01-30T02:04:23;-2.50;99.90
30473;DHT22;17263;48.160;11.452;2023-01-30T02:07:09;-2.50;99.90
30473;DHT22;17263;48.160;11.452;2023-01-30T02:09:35;-2.50;99.90
30473;DHT22;17263;48.160;11.452;2023-01-30T02:12:03;-2.50;99.90
30473;DHT22;17263;48.160;11.452;2023-01-30T02:14:32;-2.50;99.90
30473;DHT22;17263;48.160;11.452;2023-01-30T02:16:58;-2.50;99.90
30473;DHT22;17263;48.160;11.452;2023-01-30T02:19:45;-2.60;99.90
30473;DHT22;17263;48.160;11.452;2023-01-30T02:22:35;-2.60;99.90
30473;DHT22;17263;48.160;11.452;2023-01-30T02:28:16;-2.60;99.90
30473;DHT22;17263;48.160;11.452;2023-01-30T02:37:28;-2.70;99.90
30473;DHT22;17263;48.160;11.452;2023-01-30T02:42:57;-2.70;99.90
30473;DHT22;17263;48.160;11.452;2023-01-30T02:45:46;-2.70;99.90
30473;DHT22;17263;48.160;11.452;2023-01-30T02:48:24;-2.70;99.90
30473;DHT22;17263;48.160;11.452;2023-01-30T02:53:22;-2.70;99.90
30473;DHT22;17263;48.160;11.452;2023-01-30T02:55:48;-2.70;99.90
30473;DHT22;17263;48.160;11.452;2023-01-30T02:58:15;-2.70;99.90
30473;DHT22;17263;48.160;11.452;2023-01-30T03:01:09;-2.70;99.90
30473;DHT22;17263;48.160;11.452;2023-01-30T03:06:52;-2.70;99.90
30473;DHT22;17263;48.160;11.452;2023-01-30T03:09:35;-2.70;99.90
30473;DHT22;17263;48.160;11.452;2023-01-30T03:12:16;-2.70;99.90
30473;DHT22;17263;48.160;11.452;2023-01-30T03:14:48;-2.70;99.90
30473;DHT22;17263;48.160;11.452;2023-01-30T03:17:19;-2.70;99.90
30473;DHT22;17263;48.160;11.452;2023-01-30T03:19:47;-2.70;99.90
30473;DHT22;17263;48.160;11.452;2023-01-30T03:22:14;-2.70;99.90
30473;DHT22;17263;48.160;11.452;2023-01-30T03:24:40;-2.80;99.90
30473;DHT22;17263;48.160;11.452;2023-01-30T03:27:11;-2.70;99.90
30473;DHT22;17263;48.160;11.452;2023-01-30T03:29:38;-2.70;99.90
30473;DHT22;17263;48.160;11.452;2023-01-30T03:32:04;-2.70;99.90
30473;DHT22;17263;48.160;11.452;2023-01-30T03:34:30;-2.70;99.90
30473;DHT22;17263;48.160;11.452;2023-01-30T03:36:56;-2.70;99.90
30473;DHT22;17263;48.160;11.452;2023-01-30T03:39:23;-2.70;99.90
30473;DHT22;17263;48.160;11.452;2023-01-30T03:41:51;-2.70;99.90
30473;DHT22;17263;48.160;11.452;2023-01-30T03:44:17;-2.60;99.90
30473;DHT22;17263;48.160;11.452;2023-01-30T03:46:43;-2.60;99.90
30473;DHT22;17263;48.160;11.452;2023-01-30T03:49:09;-2.60;99.90
30473;DHT22;17263;48.160;11.452;2023-01-30T03:51:35;-2.60;99.90
30473;DHT22;17263;48.160;11.452;2023-01-30T03:54:01;-2.60;99.90
30473;DHT22;17263;48.160;11.452;2023-01-30T03:56:27;-2.60;99.90
30473;DHT22;17263;48.160;11.452;2023-01-30T03:58:53;-2.50;99.90
30473;DHT22;17263;48.160;11.452;2023-01-30T04:01:19;-2.40;99.90
30473;DHT22;17263;48.160;11.452;2023-01-30T04:03:45;-2.50;99.90
30473;DHT22;17263;48.160;11.452;2023-01-30T04:06:11;-2.40;99.90
30473;DHT22;17263;48.160;11.452;2023-01-30T04:08:37;-2.30;99.90
30473;DHT22;17263;48.160;11.452;2023-01-30T04:11:04;-2.30;99.90
30473;DHT22;17263;48.160;11.452;2023-01-30T04:13:30;-2.20;99.90
30473;DHT22;17263;48.160;11.452;2023-01-30T04:16:20;-2.20;99.90
30473;DHT22;17263;48.160;11.452;2023-01-30T04:18:46;-2.10;99.90
30473;DHT22;17263;48.160;11.452;2023-01-30T04:21:13;-2.00;99.90
30473;DHT22;17263;48.160;11.452;2023-01-30T04:23:40;-2.00;99.90
30473;DHT22;17263;48.160;11.452;2023-01-30T04:26:07;-2.00;99.90
30473;DHT22;17263;48.160;11.452;2023-01-30T04:28:33;-1.90;99.90
30473;DHT22;17263;48.160;11.452;2023-01-30T04:31:00;-1.90;99.90
30473;DHT22;17263;48.160;11.452;2023-01-30T04:33:26;-1.90;99.90
30473;DHT22;17263;48.160;11.452;2023-01-30T04:35:56;-1.90;99.90
30473;DHT22;17263;48.160;11.452;2023-01-30T04:38:23;-1.80;99.90
30473;DHT22;17263;48.160;11.452;2023-01-30T04:40:50;-1.80;99.90
30473;DHT22;17263;48.160;11.452;2023-01-30T04:43:17;-1.80;99.90
30473;DHT22;17263;48.160;11.452;2023-01-30T04:45:45;-1.80;99.90
30473;DHT22;17263;48.160;11.452;2023-01-30T04:48:11;-1.80;99.90
30473;DHT22;17263;48.160;11.452;2023-01-30T04:50:39;-1.80;99.90
30473;DHT22;17263;48.160;11.452;2023-01-30T04:53:05;-1.80;99.90
30473;DHT22;17263;48.160;11.452;2023-01-30T04:55:31;-1.80;99.90
30473;DHT22;17263;48.160;11.452;2023-01-30T04:57:57;-1.80;99.90
30473;DHT22;17263;48.160;11.452;2023-01-30T05:00:23;-1.80;99.90
30473;DHT22;17263;48.160;11.452;2023-01-30T05:02:49;-1.80;99.90
30473;DHT22;17263;48.160;11.452;2023-01-30T05:05:15;-1.80;99.90
30473;DHT22;17263;48.160;11.452;2023-01-30T05:07:41;-1.80;99.90
30473;DHT22;17263;48.160;11.452;2023-01-30T05:10:08;-1.80;99.90
30473;DHT22;17263;48.160;11.452;2023-01-30T05:12:35;-1.90;99.90
30473;DHT22;17263;48.160;11.452;2023-01-30T05:15:01;-1.90;99.90
30473;DHT22;17263;48.160;11.452;2023-01-30T05:17:27;-1.90;99.90
30473;DHT22;17263;48.160;11.452;2023-01-30T05:19:53;-1.90;99.90
30473;DHT22;17263;48.160;11.452;2023-01-30T05:22:19;-1.90;99.90
30473;DHT22;17263;48.160;11.452;2023-01-30T05:24:45;-1.90;99.90
30473;DHT22;17263;48.160;11.452;2023-01-30T05:27:12;-1.90;99.90
30473;DHT22;17263;48.160;11.452;2023-01-30T05:29:38;-1.90;99.90
30473;DHT22;17263;48.160;11.452;2023-01-30T05:32:04;-1.90;99.90
30473;DHT22;17263;48.160;11.452;2023-01-30T05:34:30;-2.00;99.90
30473;DHT22;17263;48.160;11.452;2023-01-30T05:36:56;-2.00;99.90
30473;DHT22;17263;48.160;11.452;2023-01-30T05:39:22;-2.00;99.90
30473;DHT22;17263;48.160;11.452;2023-01-30T05:41:48;-1.90;99.90
30473;DHT22;17263;48.160;11.452;2023-01-30T05:44:14;-1.90;99.90
30473;DHT22;17263;48.160;11.452;2023-01-30T05:46:41;-1.90;99.90
30473;DHT22;17263;48.160;11.452;2023-01-30T05:49:07;-2.00;99.90
30473;DHT22;17263;48.160;11.452;2023-01-30T05:51:33;-2.00;99.90
30473;DHT22;17263;48.160;11.452;2023-01-30T05:53:59;-2.00;99.90
30473;DHT22;17263;48.160;11.452;2023-01-30T05:56:25;-2.00;99.90
30473;DHT22;17263;48.160;11.452;2023-01-30T05:58:53;-2.00;99.90
30473;DHT22;17263;48.160;11.452;2023-01-30T06:01:19;-2.00;99.90
30473;DHT22;17263;48.160;11.452;2023-01-30T06:03:46;-1.90;99.90
30473;DHT22;17263;48.160;11.452;2023-01-30T06:06:12;-1.90;99.90
30473;DHT22;17263;48.160;11.452;2023-01-30T06:08:39;-2.00;99.90
30473;DHT22;17263;48.160;11.452;2023-01-30T06:11:08;-1.90;99.90
30473;DHT22;17263;48.160;11.452;2023-01-30T06:13:35;-1.90;99.90
30473;DHT22;17263;48.160;11.452;2023-01-30T06:16:01;-1.90;99.90
30473;DHT22;17263;48.160;11.452;2023-01-30T06:18:27;-1.70;99.90
30473;DHT22;17263;48.160;11.452;2023-01-30T06:20:53;-1.70;99.90
30473;DHT22;17263;48.160;11.452;2023-01-30T06:23:20;-1.70;99.90
30473;DHT22;17263;48.160;11.452;2023-01-30T06:25:49;-1.60;99.90
30473;DHT22;17263;48.160;11.452;2023-01-30T06:28:16;-1.60;99.90
30473;DHT22;17263;48.160;11.452;2023-01-30T06:30:43;-1.60;99.90
30473;DHT22;17263;48.160;11.452;2023-01-30T06:33:09;-1.50;99.90
30473;DHT22;17263;48.160;11.452;2023-01-30T06:35:39;-1.50;99.90
30473;DHT22;17263;48.160;11.452;2023-01-30T06:38:06;-1.50;99.90
30473;DHT22;17263;48.160;11.452;2023-01-30T06:40:37;-1.50;99.90
30473;DHT22;17263;48.160;11.452;2023-01-30T06:43:03;-1.60;99.90
30473;DHT22;17263;48.160;11.452;2023-01-30T06:45:29;-1.60;99.90
30473;DHT22;17263;48.160;11.452;2023-01-30T06:47:56;-1.50;99.90
30473;DHT22;17263;48.160;11.452;2023-01-30T06:50:24;-1.50;99.90
30473;DHT22;17263;48.160;11.452;2023-01-30T06:52:52;-1.40;99.90
30473;DHT22;17263;48.160;11.452;2023-01-30T06:55:20;-1.40;99.90
30473;DHT22;17263;48.160;11.452;2023-01-30T06:57:47;-1.30;99.90
30473;DHT22;17263;48.160;11.452;2023-01-30T07:00:16;-1.20;99.90
30473;DHT22;17263;48.160;11.452;2023-01-30T07:02:43;-1.10;99.90
30473;DHT22;17263;48.160;11.452;2023-01-30T07:05:09;-1.00;99.90
30473;DHT22;17263;48.160;11.452;2023-01-30T07:07:36;-1.00;99.90
30473;DHT22;17263;48.160;11.452;2023-01-30T07:10:03;-0.90;99.90
30473;DHT22;17263;48.160;11.452;2023-01-30T07:12:30;-0.90;99.90
30473;DHT22;17263;48.160;11.452;2023-01-30T07:14:56;-0.80;99.90
30473;DHT22;17263;48.160;11.452;2023-01-30T07:17:22;-0.60;99.90
30473;DHT22;17263;48.160;11.452;2023-01-30T07:19:49;-0.60;99.90
30473;DHT22;17263;48.160;11.452;2023-01-30T07:22:15;-0.50;99.90
30473;DHT22;17263;48.160;11.452;2023-01-30T07:24:41;-0.50;99.90
30473;DHT22;17263;48.160;11.452;2023-01-30T07:27:09;-0.50;99.90
30473;DHT22;17263;48.160;11.452;2023-01-30T07:29:36;-0.50;99.90
30473;DHT22;17263;48.160;11.452;2023-01-30T07:32:03;-0.40;99.90
30473;DHT22;17263;48.160;11.452;2023-01-30T07:34:29;-0.40;99.90
30473;DHT22;17263;48.160;11.452;2023-01-30T07:36:55;-0.30;99.90
30473;DHT22;17263;48.160;11.452;2023-01-30T07:39:21;-0.20;99.90
30473;DHT22;17263;48.160;11.452;2023-01-30T07:41:47;-0.10;99.90
30473;DHT22;17263;48.160;11.452;2023-01-30T07:44:13;0.00;99.90
30473;DHT22;17263;48.160;11.452;2023-01-30T07:46:39;0.10;99.90
30473;DHT22;17263;48.160;11.452;2023-01-30T07:49:06;0.10;99.90
30473;DHT22;17263;48.160;11.452;2023-01-30T07:51:33;0.30;99.90
30473;DHT22;17263;48.160;11.452;2023-01-30T07:53:59;0.30;99.90
30473;DHT22;17263;48.160;11.452;2023-01-30T07:56:27;0.40;99.90
30473;DHT22;17263;48.160;11.452;2023-01-30T07:58:54;0.40;99.90
30473;DHT22;17263;48.160;11.452;2023-01-30T08:01:20;0.40;99.90
30473;DHT22;17263;48.160;11.452;2023-01-30T08:03:46;0.50;99.90
30473;DHT22;17263;48.160;11.452;2023-01-30T08:06:14;0.60;99.90
30473;DHT22;17263;48.160;11.452;2023-01-30T08:08:41;0.60;99.90
30473;DHT22;17263;48.160;11.452;2023-01-30T08:11:07;0.70;99.90
30473;DHT22;17263;48.160;11.452;2023-01-30T08:13:34;0.70;99.90
30473;DHT22;17263;48.160;11.452;2023-01-30T08:16:00;0.80;99.90
30473;DHT22;17263;48.160;11.452;2023-01-30T08:18:33;0.80;99.90
30473;DHT22;17263;48.160;11.452;2023-01-30T08:21:04;0.80;99.90
30473;DHT22;17263;48.160;11.452;2023-01-30T08:23:31;1.00;99.90
30473;DHT22;17263;48.160;11.452;2023-01-30T08:25:59;1.10;99.90
30473;DHT22;17263;48.160;11.452;2023-01-30T08:28:27;1.20;99.90
30473;DHT22;17263;48.160;11.452;2023-01-30T08:30:53;1.10;99.90
30473;DHT22;17263;48.160;11.452;2023-01-30T08:33:22;1.00;99.90
30473;DHT22;17263;48.160;11.452;2023-01-30T08:35:49;0.90;99.90
30473;DHT22;17263;48.160;11.452;2023-01-30T08:38:16;0.80;99.90
30473;DHT22;17263;48.160;11.452;2023-01-30T08:40:42;0.90;99.90
30473;DHT22;17263;48.160;11.452;2023-01-30T08:43:08;0.80;99.90
30473;DHT22;17263;48.160;11.452;2023-01-30T08:45:35;0.90;99.90
30473;DHT22;17263;48.160;11.452;2023-01-30T08:48:04;1.10;99.90
30473;DHT22;17263;48.160;11.452;2023-01-30T08:50:31;1.30;99.90
30473;DHT22;17263;48.160;11.452;2023-01-30T08:53:03;1.40;99.90
30473;DHT22;17263;48.160;11.452;2023-01-30T08:55:29;1.60;99.90
30473;DHT22;17263;48.160;11.452;2023-01-30T08:57:55;1.80;99.90
30473;DHT22;17263;48.160;11.452;2023-01-30T09:00:21;1.80;99.90
30473;DHT22;17263;48.160;11.452;2023-01-30T09:02:47;2.00;99.90
30473;DHT22;17263;48.160;11.452;2023-01-30T09:05:17;2.00;99.90
30473;DHT22;17263;48.160;11.452;2023-01-30T09:07:43;1.90;99.90
30473;DHT22;17263;48.160;11.452;2023-01-30T09:10:09;1.90;99.90
30473;DHT22;17263;48.160;11.452;2023-01-30T09:12:35;2.00;99.90
30473;DHT22;17263;48.160;11.452;2023-01-30T09:15:01;2.00;99.90
30473;DHT22;17263;48.160;11.452;2023-01-30T09:17:27;2.10;99.90
30473;DHT22;17263;48.160;11.452;2023-01-30T09:19:53;2.30;99.90
30473;DHT22;17263;48.160;11.452;2023-01-30T09:22:19;2.40;99.90
30473;DHT22;17263;48.160;11.452;2023-01-30T09:24:45;2.40;99.90
30473;DHT22;17263;48.160;11.452;2023-01-30T09:27:11;2.40;99.90
30473;DHT22;17263;48.160;11.452;2023-01-30T09:29:37;2.30;99.90
30473;DHT22;17263;48.160;11.452;2023-01-30T09:32:04;2.40;99.90
30473;DHT22;17263;48.160;11.452;2023-01-30T09:34:29;2.70;99.90
30473;DHT22;17263;48.160;11.452;2023-01-30T09:36:56;2.90;99.90
30473;DHT22;17263;48.160;11.452;2023-01-30T09:39:25;3.00;99.90
30473;DHT22;17263;48.160;11.452;2023-01-30T09:47:32;3.30;99.90
30473;DHT22;17263;48.160;11.452;2023-01-30T09:52:59;3.40;99.90
30473;DHT22;17263;48.160;11.452;2023-01-30T09:55:29;3.40;99.90
30473;DHT22;17263;48.160;11.452;2023-01-30T09:57:58;3.30;99.90
30473;DHT22;17263;48.160;11.452;2023-01-30T10:00:36;3.30;99.90
30473;DHT22;17263;48.160;11.452;2023-01-30T10:20:11;3.20;99.90
30473;DHT22;17263;48.160;11.452;2023-01-30T10:22:59;3.20;99.90
30473;DHT22;17263;48.160;11.452;2023-01-30T10:30:47;3.40;99.90
30473;DHT22;17263;48.160;11.452;2023-01-30T10:33:42;3.40;99.90
30473;DHT22;17263;48.160;11.452;2023-01-30T10:36:12;3.40;99.90
30473;DHT22;17263;48.160;11.452;2023-01-30T10:38:49;3.40;99.90
30473;DHT22;17263;48.160;11.452;2023-01-30T10:41:26;3.40;99.90
30473;DHT22;17263;48.160;11.452;2023-01-30T10:44:03;3.50;99.90
30473;DHT22;17263;48.160;11.452;2023-01-30T10:49:44;3.80;99.90
30473;DHT22;17263;48.160;11.452;2023-01-30T10:55:24;4.10;99.90
30473;DHT22;17263;48.160;11.452;2023-01-30T11:00:34;4.30;99.90
30473;DHT22;17263;48.160;11.452;2023-01-30T11:03:21;4.30;99.90
30473;DHT22;17263;48.160;11.452;2023-01-30T11:05:52;4.40;99.90
30473;DHT22;17263;48.160;11.452;2023-01-30T11:08:25;4.50;99.90
30473;DHT22;17263;48.160;11.452;2023-01-30T11:10:52;4.40;99.90
30473;DHT22;17263;48.160;11.452;2023-01-30T11:13:21;4.40;99.90
30473;DHT22;17263;48.160;11.452;2023-01-30T11:15:53;4.40;99.90
30473;DHT22;17263;48.160;11.452;2023-01-30T11:18:21;4.30;99.90
30473;DHT22;17263;48.160;11.452;2023-01-30T11:23:31;4.20;99.90
30473;DHT22;17263;48.160;11.452;2023-01-30T11:25:58;4.20;99.90
30473;DHT22;17263;48.160;11.452;2023-01-30T11:28:25;4.20;99.90
30473;DHT22;17263;48.160;11.452;2023-01-30T11:30:59;4.30;99.90
30473;DHT22;17263;48.160;11.452;2023-01-30T11:33:34;4.40;99.90
30473;DHT22;17263;48.160;11.452;2023-01-30T11:36:04;4.50;99.90
30473;DHT22;17263;48.160;11.452;2023-01-30T11:38:33;4.60;99.90
30473;DHT22;17263;48.160;11.452;2023-01-30T11:41:02;4.50;99.90
30473;DHT22;17263;48.160;11.452;2023-01-30T11:43:29;4.60;99.90
30473;DHT22;17263;48.160;11.452;2023-01-30T11:45:55;4.60;99.90
30473;DHT22;17263;48.160;11.452;2023-01-30T11:48:31;4.50;99.90
30473;DHT22;17263;48.160;11.452;2023-01-30T11:51:02;4.60;99.90
30473;DHT22;17263;48.160;11.452;2023-01-30T11:56:21;4.60;99.90
30473;DHT22;17263;48.160;11.452;2023-01-30T12:05:33;4.40;99.90
30473;DHT22;17263;48.160;11.452;2023-01-30T12:07:52;4.30;99.90
30473;DHT22;17263;48.160;11.452;2023-01-30T12:10:27;4.30;99.90
30473;DHT22;17263;48.160;11.452;2023-01-30T12:12:55;4.20;99.90
30473;DHT22;17263;48.160;11.452;2023-01-30T12:15:33;4.20;99.90
30473;DHT22;17263;48.160;11.452;2023-01-30T12:21:25;4.00;99.90
30473;DHT22;17263;48.160;11.452;2023-01-30T12:24:45;3.90;99.90
30473;DHT22;17263;48.160;11.452;2023-01-30T12:26:52;3.90;99.90
30473;DHT22;17263;48.160;11.452;2023-01-30T12:29:33;3.90;99.90
30473;DHT22;17263;48.160;11.452;2023-01-30T12:32:11;4.00;99.90
30473;DHT22;17263;48.160;11.452;2023-01-30T12:34:38;3.90;99.90
30473;DHT22;17263;48.160;11.452;2023-01-30T12:45:22;4.00;99.90
30473;DHT22;17263;48.160;11.452;2023-01-30T12:48:25;4.00;99.90
30473;DHT22;17263;48.160;11.452;2023-01-30T12:51:09;4.00;99.90
30473;DHT22;17263;48.160;11.452;2023-01-30T12:59:24;4.20;99.90
30473;DHT22;17263;48.160;11.452;2023-01-30T13:10:38;4.40;99.90
30473;DHT22;17263;48.160;11.452;2023-01-30T13:13:10;4.50;99.90
30473;DHT22;17263;48.160;11.452;2023-01-30T13:16:13;4.60;99.90
30473;DHT22;17263;48.160;11.452;2023-01-30T13:19:00;4.60;99.90
30473;DHT22;17263;48.160;11.452;2023-01-30T13:21:48;4.50;99.90
30473;DHT22;17263;48.160;11.452;2023-01-30T13:24:23;4.60;99.90
30473;DHT22;17263;48.160;11.452;2023-01-30T13:26:52;4.60;99.90
30473;DHT22;17263;48.160;11.452;2023-01-30T13:29:32;4.50;99.90
30473;DHT22;17263;48.160;11.452;2023-01-30T13:32:04;4.60;99.90
30473;DHT22;17263;48.160;11.452;2023-01-30T13:34:37;4.60;99.90
30473;DHT22;17263;48.160;11.452;2023-01-30T13:37:16;4.60;99.90
30473;DHT22;17263;48.160;11.452;2023-01-30T13:39:56;4.60;99.90
30473;DHT22;17263;48.160;11.452;2023-01-30T13:42:31;4.50;99.90
30473;DHT22;17263;48.160;11.452;2023-01-30T13:45:00;4.40;99.90
30473;DHT22;17263;48.160;11.452;2023-01-30T13:50:29;4.30;99.90
30473;DHT22;17263;48.160;11.452;2023-01-30T13:56:04;4.20;99.90
30473;DHT22;17263;48.160;11.452;2023-01-30T13:58:46;4.20;99.90
30473;DHT22;17263;48.160;11.452;2023-01-30T14:01:14;4.20;99.90
30473;DHT22;17263;48.160;11.452;2023-01-30T14:03:41;4.10;99.90
30473;DHT22;17263;48.160;11.452;2023-01-30T14:06:22;4.20;99.90
30473;DHT22;17263;48.160;11.452;2023-01-30T14:08:55;4.10;99.90
30473;DHT22;17263;48.160;11.452;2023-01-30T14:11:25;4.10;99.90
30473;DHT22;17263;48.160;11.452;2023-01-30T14:16:55;4.10;99.90
30473;DHT22;17263;48.160;11.452;2023-01-30T14:32:58;3.90;99.90
30473;DHT22;17263;48.160;11.452;2023-01-30T14:35:27;3.90;99.90
30473;DHT22;17263;48.160;11.452;2023-01-30T14:38:08;3.90;99.90
30473;DHT22;17263;48.160;11.452;2023-01-30T14:59:23;3.80;99.90
30473;DHT22;17263;48.160;11.452;2023-01-30T15:02:17;3.70;99.90
30473;DHT22;17263;48.160;11.452;2023-01-30T15:07:30;3.70;99.90
30473;DHT22;17263;48.160;11.452;2023-01-30T15:15:46;3.50;99.90
30473;DHT22;17263;48.160;11.452;2023-01-30T15:21:18;3.50;99.90
30473;DHT22;17263;48.160;11.452;2023-01-30T15:24:06;3.40;99.90
30473;DHT22;17263;48.160;11.452;2023-01-30T15:31:57;3.40;99.90
30473;DHT22;17263;48.160;11.452;2023-01-30T15:34:30;3.40;99.90
30473;DHT22;17263;48.160;11.452;2023-01-30T15:36:58;3.40;99.90
30473;DHT22;17263;48.160;11.452;2023-01-30T15:39:26;3.40;99.90
30473;DHT22;17263;48.160;11.452;2023-01-30T15:41:58;3.40;99.90
30473;DHT22;17263;48.160;11.452;2023-01-30T15:44:32;3.40;99.90
30473;DHT22;17263;48.160;11.452;2023-01-30T15:50:06;3.40;99.90
30473;DHT22;17263;48.160;11.452;2023-01-30T15:52:44;3.40;99.90
30473;DHT22;17263;48.160;11.452;2023-01-30T15:55:16;3.30;99.90
30473;DHT22;17263;48.160;11.452;2023-01-30T15:57:48;3.30;99.90
30473;DHT22;17263;48.160;11.452;2023-01-30T16:00:30;3.30;99.90
30473;DHT22;17263;48.160;11.452;2023-01-30T16:02:57;3.30;99.90
30473;DHT22;17263;48.160;11.452;2023-01-30T16:05:26;3.20;99.90
30473;DHT22;17263;48.160;11.452;2023-01-30T16:07:56;3.20;99.90
30473;DHT22;17263;48.160;11.452;2023-01-30T16:10:26;3.20;99.90
30473;DHT22;17263;48.160;11.452;2023-01-30T16:12:55;3.20;99.90
30473;DHT22;17263;48.160;11.452;2023-01-30T16:15:51;3.20;99.90
30473;DHT22;17263;48.160;11.452;2023-01-30T16:18:32;3.20;99.90
30473;DHT22;17263;48.160;11.452;2023-01-30T16:21:09;3.10;99.90
30473;DHT22;17263;48.160;11.452;2023-01-30T16:24:16;3.10;99.90
30473;DHT22;17263;48.160;11.452;2023-01-30T16:26:47;3.10;99.90
30473;DHT22;17263;48.160;11.452;2023-01-30T16:29:19;3.00;99.90
30473;DHT22;17263;48.160;11.452;2023-01-30T16:31:47;3.00;99.90
30473;DHT22;17263;48.160;11.452;2023-01-30T16:34:30;2.90;99.90
30473;DHT22;17263;48.160;11.452;2023-01-30T16:37:04;2.90;99.90
30473;DHT22;17263;48.160;11.452;2023-01-30T16:39:34;2.80;99.90
30473;DHT22;17263;48.160;11.452;2023-01-30T16:42:02;2.80;99.90
30473;DHT22;17263;48.160;11.452;2023-01-30T16:44:30;2.60;99.90
30473;DHT22;17263;48.160;11.452;2023-01-30T16:47:10;2.60;99.90
30473;DHT22;17263;48.160;11.452;2023-01-30T16:49:46;2.50;99.90
30473;DHT22;17263;48.160;11.452;2023-01-30T16:52:35;2.50;99.90
30473;DHT22;17263;48.160;11.452;2023-01-30T16:55:16;2.60;99.90
30473;DHT22;17263;48.160;11.452;2023-01-30T16:57:49;2.50;99.90
30473;DHT22;17263;48.160;11.452;2023-01-30T17:00:25;2.50;99.90
30473;DHT22;17263;48.160;11.452;2023-01-30T17:02:55;2.50;99.90
30473;DHT22;17263;48.160;11.452;2023-01-30T17:05:45;2.40;99.90
30473;DHT22;17263;48.160;11.452;2023-01-30T17:10:57;2.30;99.90
30473;DHT22;17263;48.160;11.452;2023-01-30T17:13:33;2.30;99.90
30473;DHT22;17263;48.160;11.452;2023-01-30T17:18:53;2.20;99.90
30473;DHT22;17263;48.160;11.452;2023-01-30T17:21:22;2.20;99.90
30473;DHT22;17263;48.160;11.452;2023-01-30T17:23:54;2.10;99.90
30473;DHT22;17263;48.160;11.452;2023-01-30T17:26:21;2.10;99.90
30473;DHT22;17263;48.160;11.452;2023-01-30T17:28:47;2.10;99.90
30473;DHT22;17263;48.160;11.452;2023-01-30T17:31:14;2.10;99.90
30473;DHT22;17263;48.160;11.452;2023-01-30T17:33:41;2.20;99.90
30473;DHT22;17263;48.160;11.452;2023-01-30T17:36:20;2.30;99.90
30473;DHT22;17263;48.160;11.452;2023-01-30T17:38:48;2.30;99.90
30473;DHT22;17263;48.160;11.452;2023-01-30T17:41:22;2.40;99.90
30473;DHT22;17263;48.160;11.452;2023-01-30T17:43:48;2.50;99.90
30473;DHT22;17263;48.160;11.452;2023-01-30T17:46:15;2.50;99.90
30473;DHT22;17263;48.160;11.452;2023-01-30T17:48:42;2.50;99.90
30473;DHT22;17263;48.160;11.452;2023-01-30T17:51:09;2.50;99.90
30473;DHT22;17263;48.160;11.452;2023-01-30T17:53:39;2.50;99.90
30473;DHT22;17263;48.160;11.452;2023-01-30T17:56:18;2.50;99.90
30473;DHT22;17263;48.160;11.452;2023-01-30T17:58:46;2.40;99.90
30473;DHT22;17263;48.160;11.452;2023-01-30T18:01:12;2.40;99.90
30473;DHT22;17263;48.160;11.452;2023-01-30T18:03:41;2.40;99.90
30473;DHT22;17263;48.160;11.452;2023-01-30T18:06:09;2.40;99.90
30473;DHT22;17263;48.160;11.452;2023-01-30T18:08:39;2.40;99.90
30473;DHT22;17263;48.160;11.452;2023-01-30T18:11:05;2.50;99.90
30473;DHT22;17263;48.160;11.452;2023-01-30T18:13:39;2.40;99.90
30473;DHT22;17263;48.160;11.452;2023-01-30T18:16:26;2.50;99.90
30473;DHT22;17263;48.160;11.452;2023-01-30T18:18:57;2.50;99.90
30473;DHT22;17263;48.160;11.452;2023-01-30T18:21:23;2.50;99.90
30473;DHT22;17263;48.160;11.452;2023-01-30T18:23:50;2.50;99.90